Time;durP1;ratioP1;P1;durP2;ratioP2;P2;SDS_P1;SDS_P2;PMS_P1;PMS_P2;Temp;Humidity;BMP_temperature;BMP_pressure;BME280_temperature;BME280_humidity;BME280_pressure;Samples;Min_cycle;Max_cycle;Signal;HPM_P1;HPM_P2
2022/06/15 00:01:49;;;;;;;20.20;9.50;;;;;;;12.85;62.73;100987.64;110066;1256;24150;-75
2022/06/15 00:04:19;;;;;;;11.80;8.20;;;;;;;12.80;63.02;100986.95;110214;1256;21967;-75
2022/06/15 00:06:48;;;;;;;13.80;8.60;;;;;;;12.77;63.29;100991.00;110479;1256;22279;-75
2022/06/15 00:09:22;;;;;;;19.80;9.60;;;;;;;12.74;63.49;100991.17;109328;1261;21982;-75
2022/06/15 00:11:52;;;;;;;;;;;;;;;12.71;63.71;100990.38;109360;1261;24270;-75
2022/06/15 00:14:28;;;;;;;15.20;7.80;;;;;;;12.61;63.94;100988.98;109384;1261;23100;-75
2022/06/15 00:16:59;;;;;;;16.30;9.40;;;;;;;12.57;63.99;100989.41;109462;1256;21985;-75
2022/06/15 00:20:17;;;;;;;;;;;;;;;;;;;;;
2022/06/15 00:23:05;;;;;;;16.80;10.10;;;;;;;12.52;64.27;100990.20;110337;1257;22121;-76
2022/06/15 00:25:40;;;;;;;14.10;9.20;;;;;;;12.49;64.46;100989.58;110450;1256;22735;-76
2022/06/15 00:28:12;;;;;;;16.40;9.00;;;;;;;12.49;64.73;100988.35;110594;1253;22077;-76
2022/06/15 00:30:41;;;;;;;13.30;8.90;;;;;;;12.47;64.81;100987.02;109995;1253;23865;-75
2022/06/15 00:33:12;;;;;;;17.00;9.00;;;;;;;12.46;65.00;100987.95;110194;1256;23042;-75
2022/06/15 00:36:01;;;;;;;17.40;9.90;;;;;;;12.46;65.12;100987.42;109899;1256;23597;-75
2022/06/15 00:38:40;;;;;;;16.20;9.50;;;;;;;12.42;65.21;100985.56;110257;1255;21969;-76
2022/06/15 00:41:21;;;;;;;18.90;10.60;;;;;;;12.37;65.30;100986.62;110273;1256;21976;-75
2022/06/15 00:43:58;;;;;;;12.70;9.00;;;;;;;12.32;65.39;100984.85;109332;1263;22363;-76
2022/06/15 00:46:40;;;;;;;15.40;9.20;;;;;;;12.25;65.19;100986.16;109322;1262;22856;-76
2022/06/15 00:49:37;;;;;;;17.40;10.10;;;;;;;12.19;65.28;100988.77;109706;1254;23018;-76
2022/06/15 00:52:28;;;;;;;16.50;10.70;;;;;;;12.14;65.40;100990.71;109825;1260;21978;-76
2022/06/15 00:55:05;;;;;;;18.40;9.50;;;;;;;12.10;65.43;100991.64;108923;1266;22450;-76
2022/06/15 00:57:37;;;;;;;17.10;10.00;;;;;;;12.09;65.58;100991.70;108972;1267;23619;-76
2022/06/15 01:00:12;;;;;;;17.20;11.00;;;;;;;12.08;65.63;100989.77;109027;1267;22456;-76
2022/06/15 01:02:43;;;;;;;13.60;10.10;;;;;;;12.06;65.63;100989.40;108415;1273;22459;-76
2022/06/15 01:05:31;;;;;;;14.70;10.30;;;;;;;12.04;65.36;100990.19;108545;1273;22007;-77
2022/06/15 01:08:46;;;;;;;13.90;9.80;;;;;;;12.00;65.48;100990.88;108744;1267;21998;-76
2022/06/15 01:11:38;;;;;;;16.60;9.60;;;;;;;11.97;65.67;100994.11;108955;1267;23773;-77
2022/06/15 01:14:39;;;;;;;18.60;10.10;;;;;;;11.93;65.70;100998.73;109768;1261;21978;-76
2022/06/15 01:17:36;;;;;;;21.60;10.30;;;;;;;11.91;65.88;100999.27;110132;1256;21977;-75
2022/06/15 01:20:31;;;;;;;16.90;10.50;;;;;;;11.91;66.02;100998.55;110322;1256;21964;-75
2022/06/15 01:24:05;;;;;;;16.40;10.00;;;;;;;11.91;66.00;100997.70;109804;1261;21971;-75
2022/06/15 01:27:16;;;;;;;15.70;9.40;;;;;;;11.88;65.96;100997.52;108782;1270;22765;-76
2022/06/15 01:30:04;;;;;;;15.80;10.10;;;;;;;11.83;66.05;100995.39;109161;1267;22923;-75
2022/06/15 01:33:34;;;;;;;16.20;11.50;;;;;;;11.76;65.93;100994.11;109034;1267;21979;-75
2022/06/15 01:37:30;;;;;;;14.80;9.90;;;;;;;11.65;66.06;100995.59;108653;1275;23103;-75
2022/06/15 01:40:45;;;;;;;16.00;10.70;;;;;;;11.56;66.37;100993.89;107820;1283;22973;-76
2022/06/15 01:43:33;;;;;;;20.80;10.00;;;;;;;11.54;66.55;100995.17;107382;1288;22052;-75
2022/06/15 01:46:04;;;;;;;13.10;9.90;;;;;;;11.55;66.50;100997.89;107561;1282;22006;-76
2022/06/15 01:48:36;;;;;;;14.30;9.90;;;;;;;11.56;66.41;100994.95;107401;1288;22284;-76
2022/06/15 01:51:32;;;;;;;18.20;10.90;;;;;;;11.54;66.38;100996.17;107314;1288;22004;-76
2022/06/15 01:54:34;;;;;;;20.30;10.80;;;;;;;11.52;66.49;100994.80;107539;1288;22115;-76
2022/06/15 01:57:09;;;;;;;13.70;9.90;;;;;;;11.50;66.59;100992.66;107312;1288;22147;-76
2022/06/15 01:59:47;;;;;;;16.00;10.30;;;;;;;11.51;66.72;100991.75;107204;1288;22189;-76
2022/06/15 02:02:42;;;;;;;;;;;;;;;11.50;66.81;100995.16;107874;1285;22001;-76
2022/06/15 02:05:47;;;;;;;14.00;9.40;;;;;;;11.42;67.07;100993.69;107886;1285;22005;-75
2022/06/15 02:09:05;;;;;;;18.50;10.80;;;;;;;11.41;67.29;100990.48;108284;1277;22058;-76
2022/06/15 02:11:44;;;;;;;17.30;10.00;;;;;;;11.41;67.32;100991.02;108337;1273;23052;-76
2022/06/15 02:14:47;;;;;;;16.40;10.90;;;;;;;11.40;67.25;100991.16;108520;1273;22388;-76
2022/06/15 02:18:01;;;;;;;16.40;10.10;;;;;;;11.37;67.17;100995.71;109345;1261;22064;-75
2022/06/15 02:21:03;;;;;;;13.90;10.30;;;;;;;11.34;67.24;100994.21;110468;1253;23659;-75
2022/06/15 02:23:49;;;;;;;15.30;9.90;;;;;;;11.33;67.16;100992.59;110455;1253;21965;-75
2022/06/15 02:26:32;;;;;;;14.50;9.70;;;;;;;11.33;67.02;100990.41;109695;1259;22735;-77
2022/06/15 02:29:17;;;;;;;13.50;9.50;;;;;;;11.34;67.12;100990.86;109646;1262;21969;-75
2022/06/15 02:31:59;;;;;;;16.40;9.40;;;;;;;11.34;67.25;100988.05;109645;1259;23896;-76
2022/06/15 02:34:29;;;;;;;12.70;9.00;;;;;;;11.34;67.13;100986.77;109641;1259;21937;-75
2022/06/15 02:37:09;;;;;;;;;;;;;;;;;;;;;
2022/06/15 02:39:46;;;;;;;14.50;9.70;;;;;;;11.32;67.28;100986.48;109799;1260;22123;-76
2022/06/15 02:42:31;;;;;;;15.80;10.10;;;;;;;11.33;67.31;100984.05;110169;1256;21975;-75
2022/06/15 02:45:30;;;;;;;17.40;9.60;;;;;;;11.35;67.42;100984.56;110047;1254;22054;-76
2022/06/15 02:48:10;;;;;;;15.70;10.50;;;;;;;11.35;67.36;100989.34;110362;1254;22019;-75
2022/06/15 02:50:57;;;;;;;17.20;10.20;;;;;;;11.34;67.27;100991.72;109951;1259;23667;-75
2022/06/15 02:53:32;;;;;;;14.40;9.80;;;;;;;11.34;67.40;100994.21;109232;1265;21978;-76
2022/06/15 02:56:05;;;;;;;13.20;10.70;;;;;;;11.33;67.43;100993.95;108953;1265;21982;-76
2022/06/15 02:58:41;;;;;;;13.50;9.40;;;;;;;11.31;67.52;100992.59;109278;1265;23730;-76
2022/06/15 03:01:16;;;;;;;18.30;10.70;;;;;;;11.29;67.61;100990.80;108681;1270;21984;-75
2022/06/15 03:03:51;;;;;;;15.40;9.90;;;;;;;11.30;67.63;100991.05;108667;1273;23769;-74
2022/06/15 03:06:29;;;;;;;13.90;9.50;;;;;;;11.33;67.79;100989.38;108478;1273;22002;-75
2022/06/15 03:09:04;;;;;;;12.80;9.40;;;;;;;11.37;67.78;100991.98;108487;1270;23052;-75
2022/06/15 03:11:42;;;;;;;20.60;10.40;;;;;;;11.41;67.82;100990.50;108982;1264;23766;-76
2022/06/15 03:14:18;;;;;;;15.90;9.80;;;;;;;11.45;67.85;100987.65;108905;1270;22482;-76
2022/06/15 03:16:52;;;;;;;16.00;10.60;;;;;;;11.46;67.56;100994.33;108834;1270;22096;-76
2022/06/15 03:19:24;;;;;;;27.20;13.00;;;;;;;11.42;67.19;100997.07;109042;1264;21989;-76
2022/06/15 03:22:04;;;;;;;13.40;9.80;;;;;;;11.38;67.20;100999.98;109418;1261;23586;-76
2022/06/15 03:24:37;;;;;;;14.00;10.90;;;;;;;11.40;67.58;101000.32;109555;1261;22850;-76
2022/06/15 03:27:18;;;;;;;18.90;10.20;;;;;;;11.46;67.62;101001.42;109299;1262;22016;-76
2022/06/15 03:29:54;;;;;;;14.30;10.00;;;;;;;11.50;67.57;101006.27;109449;1261;21973;-76
2022/06/15 03:32:38;;;;;;;16.10;9.40;;;;;;;11.54;67.53;101007.45;109929;1256;23611;-76
2022/06/15 03:35:13;;;;;;;14.90;10.70;;;;;;;11.57;67.46;101007.86;109561;1261;23709;-76
2022/06/15 03:37:43;;;;;;;18.30;10.40;;;;;;;11.57;67.34;101005.98;109386;1265;21980;-75
2022/06/15 03:40:27;;;;;;;26.50;15.80;;;;;;;11.53;67.08;101007.73;108839;1270;23724;-75
2022/06/15 03:42:57;;;;;;;28.70;15.60;;;;;;;11.53;67.25;101005.33;108510;1273;21990;-75
2022/06/15 03:45:30;;;;;;;24.10;13.80;;;;;;;11.56;67.32;101009.04;108604;1270;22442;-75
2022/06/15 03:48:37;;;;;;;20.30;11.80;;;;;;;11.56;67.06;101007.05;108759;1270;21981;-75
2022/06/15 03:52:16;;;;;;;;;;;;;;;;;;;;;
2022/06/15 03:55:15;;;;;;;23.60;11.50;;;;;;;11.58;67.28;101014.31;108901;1270;22457;-76
2022/06/15 03:58:30;;;;;;;19.00;10.50;;;;;;;11.62;67.08;101009.86;108855;1267;23589;-75
2022/06/15 04:06:36;;;;;;;15.20;10.20;;;;;;;11.54;66.91;101011.48;108565;1276;22079;-76
2022/06/15 04:09:31;;;;;;;19.20;11.20;;;;;;;11.52;66.99;101015.96;109004;1264;23683;-75
2022/06/15 04:12:24;;;;;;;16.30;11.20;;;;;;;11.47;66.87;101015.94;109196;1264;23795;-75
2022/06/15 04:15:23;;;;;;;;;;;;;;;;;;;;;
2022/06/15 04:18:38;;;;;;;17.30;10.90;;;;;;;11.48;67.42;101019.91;109249;1264;22277;-75
2022/06/15 04:21:39;;;;;;;20.40;11.00;;;;;;;11.55;67.65;101024.65;108798;1272;22291;-75
2022/06/15 04:25:38;;;;;;;14.90;9.30;;;;;;;11.69;67.90;101027.13;108298;1278;22011;-76
2022/06/15 04:29:00;;;;;;;16.20;9.90;;;;;;;11.82;67.91;101025.69;108420;1276;22213;-79
2022/06/15 04:32:15;;;;;;;17.50;9.40;;;;;;;11.92;67.51;101028.78;107574;1287;22016;-80
2022/06/15 04:35:10;;;;;;;15.50;10.20;;;;;;;12.00;67.02;101028.81;107701;1282;22016;-76
2022/06/15 04:38:20;;;;;;;22.70;17.80;;;;;;;12.07;67.15;101034.67;108332;1282;22337;-77
2022/06/15 04:41:11;;;;;;;14.60;10.30;;;;;;;12.18;67.27;101035.05;108006;1281;22716;-77
2022/06/15 04:44:22;;;;;;;14.20;9.70;;;;;;;12.28;67.07;101030.55;108872;1269;23717;-79
2022/06/15 04:47:17;;;;;;;22.30;10.60;;;;;;;12.30;66.82;101032.94;108924;1270;22752;-77
2022/06/15 04:50:44;;;;;;;15.10;8.70;;;;;;;12.33;66.94;101027.84;108929;1269;21993;-77
2022/06/15 04:54:00;;;;;;;15.00;9.60;;;;;;;12.43;67.01;101027.68;108326;1275;23714;-77
2022/06/15 04:57:59;;;;;;;19.40;11.00;;;;;;;12.62;67.04;101026.75;108417;1276;21989;-78
2022/06/15 05:01:22;;;;;;;21.00;10.30;;;;;;;12.82;67.02;101034.64;107901;1284;23091;-77
2022/06/15 05:04:12;;;;;;;14.00;10.20;;;;;;;13.01;66.56;101029.23;107967;1281;22765;-77
2022/06/15 05:07:08;;;;;;;20.00;11.90;;;;;;;13.17;66.12;101026.77;107949;1281;22075;-77
2022/06/15 05:10:04;;;;;;;19.10;11.50;;;;;;;13.32;65.84;101024.23;108640;1276;23193;-76
2022/06/15 05:14:03;;;;;;;12.10;9.20;;;;;;;13.51;65.69;101026.79;109164;1267;22905;-77
2022/06/15 05:18:01;;;;;;;18.60;12.60;;;;;;;13.69;65.44;101032.38;108681;1273;23722;-77
2022/06/15 05:22:31;;;;;;;19.20;12.60;;;;;;;13.93;65.49;101032.38;108786;1273;23707;-77
2022/06/15 05:26:46;;;;;;;13.50;8.60;;;;;;;14.24;65.72;101034.52;108451;1276;24110;-76
2022/06/15 05:29:57;;;;;;;19.90;11.00;;;;;;;14.69;65.88;101033.92;108382;1279;22768;-77
2022/06/15 05:33:45;;;;;;;;;;;;;;;;;;;;;
2022/06/15 05:36:47;;;;;;;17.70;9.50;;;;;;;15.56;63.87;101040.55;107811;1276;22056;-77
2022/06/15 05:39:20;;;;;;;13.20;7.40;;;;;;;15.84;63.37;101038.66;108397;1276;23608;-77
2022/06/15 05:41:56;;;;;;;11.80;8.10;;;;;;;16.20;62.63;101037.29;108413;1273;21980;-77
2022/06/15 05:44:53;;;;;;;9.50;5.40;;;;;;;16.57;61.23;101045.88;108643;1273;23618;-77
2022/06/15 05:47:31;;;;;;;8.70;3.70;;;;;;;16.91;59.97;101042.85;108373;1276;22006;-77
2022/06/15 05:50:17;;;;;;;8.90;3.40;;;;;;;17.29;58.52;101041.64;108448;1276;23018;-78
2022/06/15 05:53:07;;;;;;;7.50;3.20;;;;;;;17.77;56.93;101040.86;108575;1270;22256;-77
2022/06/15 05:55:43;;;;;;;12.70;4.00;;;;;;;18.11;55.66;101040.60;108749;1270;23611;-77
2022/06/15 05:58:14;;;;;;;8.60;3.50;;;;;;;18.51;54.56;101043.31;109672;1262;22084;-76
2022/06/15 06:00:57;;;;;;;;;;;;;;;;;;;;;
2022/06/15 06:04:05;;;;;;;7.20;2.70;;;;;;;19.46;52.15;101047.86;109394;1263;25458;-75
2022/06/15 06:06:36;;;;;;;9.90;3.10;;;;;;;19.85;50.50;101048.56;109891;1258;21966;-77
2022/06/15 06:09:09;;;;;;;13.00;2.40;;;;;;;20.29;50.11;101043.70;110191;1259;23053;-76
2022/06/15 06:11:55;;;;;;;6.80;2.40;;;;;;;20.83;48.17;101041.67;110244;1259;22039;-78
2022/06/15 06:14:38;;;;;;;9.20;2.70;;;;;;;21.20;46.47;101040.98;110284;1256;22396;-78
2022/06/15 06:17:08;;;;;;;5.90;2.50;;;;;;;21.54;45.82;101037.85;109952;1259;22131;-78
2022/06/15 06:19:51;;;;;;;4.50;2.10;;;;;;;21.84;44.84;101040.88;109632;1261;22970;-77
2022/06/15 06:22:32;;;;;;;7.70;2.30;;;;;;;22.13;43.84;101037.34;109761;1256;317214;-77
2022/06/15 06:25:07;;;;;;;8.50;2.50;;;;;;;22.38;43.08;101039.20;109303;1264;23685;-78
2022/06/15 06:27:42;;;;;;;5.70;2.60;;;;;;;22.59;41.81;101037.15;108843;1269;22051;-77
2022/06/15 06:30:21;;;;;;;7.20;2.30;;;;;;;22.77;41.51;101034.70;108992;1267;22006;-78
2022/06/15 06:32:56;;;;;;;;;;;;;;;22.97;41.30;101034.87;108544;1276;21975;-78
2022/06/15 06:35:32;;;;;;;3.70;1.90;;;;;;;23.18;41.38;101036.40;108685;1276;23628;-77
2022/06/15 06:38:10;;;;;;;5.70;2.30;;;;;;;23.42;41.04;101037.35;108496;1273;21996;-78
2022/06/15 06:40:43;;;;;;;4.90;1.90;;;;;;;23.63;40.23;101040.18;108553;1273;23286;-78
2022/06/15 06:43:19;;;;;;;4.50;1.70;;;;;;;23.84;39.79;101037.17;108687;1267;21983;-77
2022/06/15 06:46:00;;;;;;;7.60;2.20;;;;;;;24.08;38.90;101035.46;109289;1262;22283;-80
2022/06/15 06:48:38;;;;;;;5.90;2.10;;;;;;;24.29;38.05;101035.20;109522;1261;22022;-78
2022/06/15 06:51:14;;;;;;;6.10;2.00;;;;;;;24.50;37.92;101036.79;109786;1262;21965;-79
2022/06/15 06:53:48;;;;;;;5.30;2.60;;;;;;;24.67;37.04;101035.55;109802;1261;21990;-78
2022/06/15 06:56:22;;;;;;;8.60;2.10;;;;;;;24.79;36.74;101036.35;110034;1259;22552;-78
2022/06/15 06:59:15;;;;;;;4.30;1.60;;;;;;;24.87;36.22;101037.89;110662;1250;22032;-79
2022/06/15 07:01:57;;;;;;;4.80;2.00;;;;;;;24.89;35.89;101039.55;110745;1250;23676;-79
2022/06/15 07:04:38;;;;;;;4.40;1.40;;;;;;;24.87;35.45;101037.61;110578;1250;23565;-78
2022/06/15 07:07:21;;;;;;;5.20;2.10;;;;;;;24.91;35.36;101040.44;110639;1253;21967;-77
2022/06/15 07:09:53;;;;;;;4.30;1.90;;;;;;;25.02;35.37;101033.96;110229;1256;21983;-77
2022/06/15 07:12:25;;;;;;;3.60;1.70;;;;;;;25.09;34.79;101033.65;110255;1257;21964;-76
2022/06/15 07:14:59;;;;;;;4.80;1.80;;;;;;;25.18;34.66;101034.98;110380;1256;21960;-79
2022/06/15 07:17:29;;;;;;;6.80;1.80;;;;;;;25.32;34.97;101035.19;110223;1256;21968;-78
2022/06/15 07:20:07;;;;;;;3.70;1.60;;;;;;;25.56;34.23;101035.23;110174;1256;21956;-78
2022/06/15 07:22:39;;;;;;;5.50;2.00;;;;;;;25.60;33.39;101034.10;110064;1256;22041;-78
2022/06/15 07:25:12;;;;;;;8.70;2.00;;;;;;;25.67;33.33;101032.23;110222;1256;23717;-81
2022/06/15 07:27:56;;;;;;;4.60;1.90;;;;;;;25.65;32.98;101030.26;109380;1261;21969;-77
2022/06/15 07:30:33;;;;;;;5.40;1.50;;;;;;;25.75;33.32;101031.80;109413;1261;21973;-79
2022/06/15 07:33:05;;;;;;;3.30;1.10;;;;;;;25.90;32.77;101033.57;109567;1261;23588;-79
2022/06/15 07:35:39;;;;;;;5.10;1.30;;;;;;;25.94;31.90;101033.95;109141;1262;23711;-79
2022/06/15 07:38:19;;;;;;;;;;;;;;;25.91;31.95;101032.71;109522;1262;22095;-80
2022/06/15 07:41:02;;;;;;;3.20;1.30;;;;;;;25.80;31.68;101030.14;109669;1263;22048;-79
2022/06/15 07:43:36;;;;;;;4.50;2.00;;;;;;;25.80;31.96;101029.92;109013;1265;21987;-78
2022/06/15 07:46:14;;;;;;;4.30;1.80;;;;;;;25.79;32.04;101026.18;109284;1262;21991;-79
2022/06/15 07:51:40;;;;;;;5.40;3.20;;;;;;;25.89;31.36;101024.80;109196;1266;23875;-78
2022/06/15 07:54:14;;;;;;;4.20;2.20;;;;;;;25.98;31.19;101025.81;109031;1267;21981;-78
2022/06/15 07:56:48;;;;;;;6.00;3.10;;;;;;;26.04;31.45;101024.64;108915;1267;21981;-78
2022/06/15 07:59:22;;;;;;;4.00;1.90;;;;;;;26.18;31.17;101017.58;109226;1267;22461;-78
2022/06/15 08:01:55;;;;;;;4.80;1.30;;;;;;;26.22;30.46;101017.72;109302;1262;22773;-78
2022/06/15 08:04:28;;;;;;;5.30;1.70;;;;;;;26.31;30.74;101012.94;109606;1262;21969;-78
2022/06/15 08:06:58;;;;;;;5.40;2.10;;;;;;;26.56;30.08;101014.71;109340;1261;21971;-77
2022/06/15 08:09:28;;;;;;;3.40;1.60;;;;;;;26.76;29.70;101014.81;109987;1256;22013;-79
2022/06/15 08:12:18;;;;;;;7.40;1.80;;;;;;;26.86;29.66;101009.89;109751;1256;21961;-78
2022/06/15 08:14:53;;;;;;;;;;;;;;;26.79;29.62;101015.92;110212;1256;23045;-78
2022/06/15 08:17:38;;;;;;;10.20;1.70;;;;;;;26.75;29.75;101020.17;110076;1259;22760;-78
2022/06/15 08:20:29;;;;;;;2.90;1.10;;;;;;;26.79;30.19;101019.45;110110;1258;23708;-78
2022/06/15 08:23:26;;;;;;;4.70;1.30;;;;;;;26.91;29.71;101008.41;110020;1258;23658;-78
2022/06/15 08:26:25;;;;;;;5.50;1.30;;;;;;;27.01;29.11;101005.88;110293;1256;21972;-78
2022/06/15 08:34:35;;;;;;;3.00;1.30;;;;;;;26.85;29.25;101014.98;110377;1259;23021;-80
2022/06/15 08:38:04;;;;;;;4.10;1.50;;;;;;;26.60;28.68;101019.46;109395;1265;21974;-79
2022/06/15 08:41:29;;;;;;;;;;;;;;;;;;;;;
2022/06/15 08:45:38;;;;;;;2.90;1.30;;;;;;;26.70;29.48;101014.46;109322;1268;22535;-80
2022/06/15 08:49:28;;;;;;;3.90;1.70;;;;;;;26.73;29.56;101018.27;108924;1273;22106;-79
2022/06/15 08:52:19;;;;;;;5.00;1.60;;;;;;;26.90;29.61;101021.53;108243;1278;23121;-78
2022/06/15 08:56:04;;;;;;;;;;;;;;;;;;;;;
2022/06/15 08:59:35;;;;;;;4.50;1.50;;;;;;;27.16;28.24;101016.19;108271;1276;22037;-76
2022/06/15 09:02:51;;;;;;;5.50;1.40;;;;;;;27.13;28.75;101017.86;108505;1271;22139;-77
2022/06/15 09:06:30;;;;;;;4.60;1.60;;;;;;;27.32;28.33;101023.57;108789;1267;21982;-76
2022/06/15 09:09:41;;;;;;;3.20;1.30;;;;;;;27.53;27.73;101021.39;108915;1262;21969;-77
2022/06/15 09:13:20;;;;;;;;;;;;;;;;;;;;;
2022/06/15 09:17:22;;;;;;;10.60;2.20;;;;;;;27.82;27.23;101010.50;110246;1257;23094;-74
2022/06/15 09:21:08;;;;;;;5.00;1.80;;;;;;;28.01;26.98;101009.42;110036;1260;23573;-74
2022/06/15 09:24:16;;;;;;;3.00;1.10;;;;;;;27.99;27.05;101015.59;109176;1265;23463;-74
2022/06/15 09:26:59;;;;;;;8.60;1.70;;;;;;;27.96;27.48;101018.00;109276;1263;23665;-76
2022/06/15 09:29:45;;;;;;;5.70;1.60;;;;;;;27.92;27.31;101015.98;109092;1267;22042;-75
2022/06/15 09:32:28;;;;;;;4.40;1.50;;;;;;;27.91;27.20;101013.48;108971;1270;22012;-75
2022/06/15 09:35:16;;;;;;;4.90;1.40;;;;;;;27.75;26.62;101010.73;108953;1267;22050;-75
2022/06/15 09:37:52;;;;;;;3.60;1.50;;;;;;;27.61;26.87;101007.20;108965;1265;23861;-75
2022/06/15 09:40:53;;;;;;;2.70;1.10;;;;;;;27.47;27.46;101003.34;109234;1264;22400;-75
2022/06/15 09:43:31;;;;;;;4.00;1.00;;;;;;;27.45;26.91;101001.06;109156;1265;23161;-75
2022/06/15 09:46:51;;;;;;;3.40;1.30;;;;;;;27.32;26.84;100997.69;109609;1263;22107;-75
2022/06/15 09:49:59;;;;;;;3.80;1.50;;;;;;;27.05;27.10;100996.27;109075;1268;22002;-75
2022/06/15 09:53:09;;;;;;;2.80;1.20;;;;;;;26.90;27.66;100998.60;108948;1268;23061;-75
2022/06/15 09:55:48;;;;;;;3.50;1.60;;;;;;;26.95;27.65;100997.61;108860;1268;22285;-74
2022/06/15 09:59:05;;;;;;;3.00;1.20;;;;;;;27.04;27.64;101002.32;108976;1266;21968;-76
2022/06/15 10:01:42;;;;;;;4.50;1.20;;;;;;;26.87;27.43;101004.70;109190;1264;22485;-74
2022/06/15 10:04:31;;;;;;;3.60;1.00;;;;;;;26.69;27.95;101000.36;109225;1264;22059;-75
2022/06/15 10:07:27;;;;;;;4.50;1.50;;;;;;;26.73;27.88;100997.56;109484;1259;23834;-75
2022/06/15 10:10:15;;;;;;;2.60;1.10;;;;;;;26.81;27.44;100995.73;109754;1264;23138;-74
2022/06/15 10:12:58;;;;;;;2.10;1.00;;;;;;;26.73;26.92;100992.42;109142;1264;21992;-75
2022/06/15 10:15:40;;;;;;;3.30;1.10;;;;;;;26.65;27.04;100988.78;109333;1264;22059;-75
2022/06/15 10:18:29;;;;;;;5.30;1.30;;;;;;;26.70;27.00;100988.92;109583;1264;24282;-74
2022/06/15 10:21:08;;;;;;;3.20;1.10;;;;;;;26.67;26.95;100985.31;108891;1270;22761;-74
2022/06/15 10:23:51;;;;;;;3.20;1.30;;;;;;;26.50;26.73;100987.71;108761;1270;22545;-74
2022/06/15 10:26:41;;;;;;;3.20;0.90;;;;;;;26.34;26.98;100984.15;108842;1264;21974;-74
2022/06/15 10:29:18;;;;;;;2.70;1.10;;;;;;;26.26;27.49;100984.35;109837;1260;21970;-74
2022/06/15 10:32:10;;;;;;;2.30;0.90;;;;;;;26.17;28.03;100979.06;110080;1259;23007;-75
2022/06/15 10:35:04;;;;;;;3.00;1.40;;;;;;;26.13;28.25;100978.33;110005;1259;23550;-74
2022/06/15 10:37:57;;;;;;;4.10;1.40;;;;;;;26.04;28.25;100976.50;109940;1257;21982;-74
2022/06/15 10:40:40;;;;;;;2.10;0.90;;;;;;;26.00;28.52;100980.53;110659;1253;21968;-75
2022/06/15 10:43:20;;;;;;;;;;;;;;;26.00;28.34;100972.09;110549;1253;22006;-74
2022/06/15 10:46:01;;;;;;;12.90;2.90;;;;;;;25.74;27.91;100969.60;110680;1254;22070;-72
2022/06/15 10:48:46;;;;;;;4.00;1.80;;;;;;;25.65;28.47;100972.52;109962;1258;22094;-72
2022/06/15 10:51:30;;;;;;;5.10;2.00;;;;;;;25.60;28.82;100969.45;109858;1257;23066;-72
2022/06/15 10:54:34;;;;;;;3.40;1.80;;;;;;;25.47;28.83;100966.92;110067;1257;23776;-73
2022/06/15 11:03:25;;;;;;;3.10;1.00;;;;;;;25.05;28.76;100959.30;109000;1265;23824;-73
2022/06/15 11:05:58;;;;;;;3.40;0.90;;;;;;;24.86;28.88;100958.21;109055;1260;24298;-73
2022/06/15 11:08:33;;;;;;;2.60;1.20;;;;;;;24.74;29.22;100957.91;110313;1257;24292;-72
2022/06/15 11:11:26;;;;;;;3.60;1.20;;;;;;;24.70;29.38;100958.55;109836;1259;23569;-77
2022/06/15 11:14:12;;;;;;;3.80;1.30;;;;;;;24.62;29.64;100963.67;109319;1264;23592;-77
2022/06/15 11:19:38;;;;;;;;;;;;;;;24.45;29.79;100961.09;109361;1263;21959;-76
2022/06/15 11:22:23;;;;;;;3.70;1.10;;;;;;;24.39;30.16;100955.94;109080;1267;21986;-74
2022/06/15 11:25:09;;;;;;;3.00;1.60;;;;;;;24.33;30.12;100955.90;108814;1270;23998;-73
2022/06/15 11:28:05;;;;;;;2.90;1.10;;;;;;;24.32;30.42;100953.73;108664;1270;22002;-74
2022/06/15 11:30:59;;;;;;;15.80;14.30;;;;;;;24.35;30.62;100954.15;108748;1267;21991;-73
2022/06/15 11:33:52;;;;;;;4.60;1.60;;;;;;;24.35;29.95;100950.70;109226;1265;23525;-73
2022/06/15 11:36:59;;;;;;;3.80;1.50;;;;;;;24.24;29.90;100949.73;108971;1268;21985;-72
2022/06/15 11:39:50;;;;;;;3.50;1.10;;;;;;;24.18;30.49;100945.05;108908;1267;23575;-73
2022/06/15 11:42:24;;;;;;;2.90;1.10;;;;;;;24.14;30.74;100945.08;108855;1270;22052;-74
2022/06/15 11:44:54;;;;;;;3.80;1.10;;;;;;;24.04;30.43;100943.57;108719;1271;23052;-74
2022/06/15 11:47:57;;;;;;;3.30;1.30;;;;;;;23.99;30.59;100944.70;108701;1273;21979;-74
2022/06/15 11:51:05;;;;;;;5.90;1.50;;;;;;;23.89;30.91;100945.50;109145;1267;21996;-75
2022/06/15 11:54:16;;;;;;;5.70;1.40;;;;;;;23.89;31.46;100944.27;109184;1266;21978;-74
2022/06/15 11:57:05;;;;;;;2.50;1.10;;;;;;;23.92;31.36;100948.11;108842;1270;21992;-74
2022/06/15 12:00:21;;;;;;;2.90;1.70;;;;;;;23.96;31.00;100945.47;108856;1270;21992;-75
2022/06/15 12:03:50;;;;;;;2.70;1.40;;;;;;;23.95;30.73;100941.18;108668;1273;21989;-74
2022/06/15 12:07:02;;;;;;;4.10;1.20;;;;;;;23.84;30.59;100936.63;108650;1271;21993;-74
2022/06/15 12:09:44;;;;;;;3.80;1.30;;;;;;;23.82;30.86;100933.28;108854;1270;22049;-75
2022/06/15 12:12:37;;;;;;;2.50;1.20;;;;;;;23.83;31.03;100939.24;108733;1273;21984;-73
2022/06/15 12:15:35;;;;;;;3.70;1.40;;;;;;;23.91;31.35;100939.23;108536;1276;22021;-75
2022/06/15 12:18:30;;;;;;;4.50;1.60;;;;;;;24.05;31.39;100936.13;108423;1274;22862;-74
2022/06/15 12:21:28;;;;;;;3.60;1.30;;;;;;;24.25;31.74;100938.20;108535;1271;23689;-75
2022/06/15 12:24:21;;;;;;;4.70;1.70;;;;;;;24.44;31.61;100933.35;108763;1270;23095;-74
2022/06/15 12:27:14;;;;;;;4.10;1.30;;;;;;;24.50;30.64;100929.55;108666;1271;23595;-74
2022/06/15 12:30:20;;;;;;;4.90;1.70;;;;;;;24.43;30.61;100924.70;108761;1269;23114;-75
2022/06/15 12:33:05;;;;;;;11.70;10.40;;;;;;;24.40;30.62;100921.89;108592;1268;21982;-74
2022/06/15 12:35:58;;;;;;;4.90;1.60;;;;;;;24.35;30.61;100920.92;108678;1273;22176;-74
2022/06/15 12:38:57;;;;;;;7.30;4.20;;;;;;;24.10;30.37;100913.76;108262;1277;22001;-74
2022/06/15 12:44:45;;;;;;;5.00;2.00;;;;;;;24.06;30.78;100910.73;108504;1276;23599;-74
2022/06/15 12:47:26;;;;;;;2.50;1.10;;;;;;;24.08;30.81;100915.85;108498;1273;23018;-74
2022/06/15 12:50:38;;;;;;;3.50;1.00;;;;;;;24.05;30.45;100915.08;108353;1279;22006;-75
2022/06/15 12:53:43;;;;;;;3.90;1.60;;;;;;;23.90;30.74;100915.90;108051;1279;22243;-74
2022/06/15 12:57:00;;;;;;;4.70;1.00;;;;;;;23.89;30.87;100911.95;108306;1279;22009;-74
2022/06/15 13:00:13;;;;;;;4.30;1.50;;;;;;;23.74;30.92;100907.02;108136;1279;23073;-73
2022/06/15 13:02:54;;;;;;;4.80;1.10;;;;;;;23.61;31.12;100905.34;108209;1275;23267;-73
2022/06/15 13:05:35;;;;;;;4.50;1.50;;;;;;;23.45;31.01;100903.55;108466;1276;21987;-74
2022/06/15 13:08:17;;;;;;;4.00;1.70;;;;;;;23.37;31.54;100894.80;108734;1270;22439;-74
2022/06/15 13:10:53;;;;;;;3.50;1.40;;;;;;;23.42;31.83;100891.49;109468;1264;21985;-74
2022/06/15 13:13:30;;;;;;;4.40;1.70;;;;;;;23.39;31.65;100892.69;109594;1264;21990;-73
2022/06/15 13:16:40;;;;;;;3.20;1.50;;;;;;;23.34;31.45;100890.00;109598;1264;23623;-73
2022/06/15 13:19:47;;;;;;;7.10;1.10;;;;;;;23.26;31.74;100890.54;109764;1261;21967;-73
2022/06/15 13:22:40;;;;;;;4.60;1.30;;;;;;;23.09;31.38;100891.52;109943;1260;23057;-74
2022/06/15 13:25:19;;;;;;;4.50;3.10;;;;;;;22.88;31.79;100890.67;108937;1267;22459;-74
2022/06/15 13:28:00;;;;;;;5.10;2.60;;;;;;;22.83;31.97;100892.30;108940;1267;23641;-74
2022/06/15 13:30:48;;;;;;;2.70;1.00;;;;;;;22.82;31.98;100887.52;109532;1261;22979;-74
2022/06/15 13:33:48;;;;;;;3.50;1.50;;;;;;;22.77;31.87;100884.30;110002;1260;22761;-73
2022/06/15 13:36:23;;;;;;;3.30;1.30;;;;;;;22.72;32.19;100883.44;109928;1260;22906;-73
2022/06/15 13:38:53;;;;;;;3.60;1.50;;;;;;;22.67;31.96;100882.44;109788;1260;22313;-72
2022/06/15 13:41:30;;;;;;;3.80;1.20;;;;;;;22.58;32.20;100884.67;109714;1260;24331;-73
2022/06/15 13:44:02;;;;;;;3.70;0.90;;;;;;;22.51;32.45;100880.80;110131;1254;21975;-75